sensor_id;sensor_type;location;lat;lon;timestamp;temperature;humidity
34766;DHT22;20984;43.508;1.504;2023-09-12T00:02:03;21.80;99.90
34766;DHT22;20984;43.508;1.504;2023-09-12T00:04:29;21.90;99.90
34766;DHT22;20984;43.508;1.504;2023-09-12T00:06:54;21.90;99.90
34766;DHT22;20984;43.508;1.504;2023-09-12T00:09:20;21.80;99.90
34766;DHT22;20984;43.508;1.504;2023-09-12T00:11:45;21.80;99.90
34766;DHT22;20984;43.508;1.504;2023-09-12T00:14:14;21.60;99.90
34766;DHT22;20984;43.508;1.504;2023-09-12T00:16:40;21.40;99.90
34766;DHT22;20984;43.508;1.504;2023-09-12T00:19:05;21.30;99.90
34766;DHT22;20984;43.508;1.504;2023-09-12T00:21:31;21.10;99.90
34766;DHT22;20984;43.508;1.504;2023-09-12T00:23:56;21.10;99.90
34766;DHT22;20984;43.508;1.504;2023-09-12T00:26:22;21.00;99.90
34766;DHT22;20984;43.508;1.504;2023-09-12T00:28:48;20.90;99.90
34766;DHT22;20984;43.508;1.504;2023-09-12T00:31:13;20.90;99.90
34766;DHT22;20984;43.508;1.504;2023-09-12T00:33:39;20.80;99.90
34766;DHT22;20984;43.508;1.504;2023-09-12T00:36:04;20.80;99.90
34766;DHT22;20984;43.508;1.504;2023-09-12T00:38:30;20.80;99.90
34766;DHT22;20984;43.508;1.504;2023-09-12T00:40:55;20.70;99.90
34766;DHT22;20984;43.508;1.504;2023-09-12T00:43:21;20.70;99.90
34766;DHT22;20984;43.508;1.504;2023-09-12T00:45:46;20.70;99.90
34766;DHT22;20984;43.508;1.504;2023-09-12T00:48:12;20.70;99.90
34766;DHT22;20984;43.508;1.504;2023-09-12T00:50:38;20.70;99.90
34766;DHT22;20984;43.508;1.504;2023-09-12T00:53:04;20.70;99.90
34766;DHT22;20984;43.508;1.504;2023-09-12T00:55:30;20.60;99.90
34766;DHT22;20984;43.508;1.504;2023-09-12T00:57:57;20.60;99.90
34766;DHT22;20984;43.508;1.504;2023-09-12T01:00:22;20.60;99.90
34766;DHT22;20984;43.508;1.504;2023-09-12T01:02:48;20.60;99.90
34766;DHT22;20984;43.508;1.504;2023-09-12T01:05:15;20.60;99.90
34766;DHT22;20984;43.508;1.504;2023-09-12T01:07:41;20.60;99.90
34766;DHT22;20984;43.508;1.504;2023-09-12T01:10:08;20.60;99.90
34766;DHT22;20984;43.508;1.504;2023-09-12T01:12:34;20.60;99.90
34766;DHT22;20984;43.508;1.504;2023-09-12T01:15:00;20.60;99.90
34766;DHT22;20984;43.508;1.504;2023-09-12T01:17:25;20.60;99.90
34766;DHT22;20984;43.508;1.504;2023-09-12T01:19:51;20.60;99.90
34766;DHT22;20984;43.508;1.504;2023-09-12T01:22:32;20.60;99.90
34766;DHT22;20984;43.508;1.504;2023-09-12T01:25:07;20.60;99.90
34766;DHT22;20984;43.508;1.504;2023-09-12T01:27:35;20.60;99.90
34766;DHT22;20984;43.508;1.504;2023-09-12T01:30:04;20.60;99.90
34766;DHT22;20984;43.508;1.504;2023-09-12T01:32:31;20.70;99.90
34766;DHT22;20984;43.508;1.504;2023-09-12T01:34:56;20.70;99.90
34766;DHT22;20984;43.508;1.504;2023-09-12T01:37:22;20.70;99.90
34766;DHT22;20984;43.508;1.504;2023-09-12T01:39:47;20.70;99.90
34766;DHT22;20984;43.508;1.504;2023-09-12T01:42:15;20.70;99.90
34766;DHT22;20984;43.508;1.504;2023-09-12T01:44:41;20.70;99.90
34766;DHT22;20984;43.508;1.504;2023-09-12T01:47:08;20.70;99.90
34766;DHT22;20984;43.508;1.504;2023-09-12T01:49:35;20.70;99.90
34766;DHT22;20984;43.508;1.504;2023-09-12T01:52:01;20.70;99.90
34766;DHT22;20984;43.508;1.504;2023-09-12T01:54:27;20.70;99.90
34766;DHT22;20984;43.508;1.504;2023-09-12T01:56:54;20.70;99.90
34766;DHT22;20984;43.508;1.504;2023-09-12T01:59:21;20.60;99.90
34766;DHT22;20984;43.508;1.504;2023-09-12T02:01:46;20.60;99.90
34766;DHT22;20984;43.508;1.504;2023-09-12T02:04:12;20.50;99.90
34766;DHT22;20984;43.508;1.504;2023-09-12T02:06:37;20.40;99.90
34766;DHT22;20984;43.508;1.504;2023-09-12T02:09:03;20.30;99.90
34766;DHT22;20984;43.508;1.504;2023-09-12T02:11:28;20.20;99.90
34766;DHT22;20984;43.508;1.504;2023-09-12T02:13:54;20.00;99.90
34766;DHT22;20984;43.508;1.504;2023-09-12T02:16:19;19.80;99.90
34766;DHT22;20984;43.508;1.504;2023-09-12T02:18:45;19.60;99.90
34766;DHT22;20984;43.508;1.504;2023-09-12T02:21:10;19.50;99.90
34766;DHT22;20984;43.508;1.504;2023-09-12T02:23:36;19.40;99.90
34766;DHT22;20984;43.508;1.504;2023-09-12T02:26:01;19.30;99.90
34766;DHT22;20984;43.508;1.504;2023-09-12T02:28:27;19.20;99.90
34766;DHT22;20984;43.508;1.504;2023-09-12T02:30:52;19.20;99.90
34766;DHT22;20984;43.508;1.504;2023-09-12T02:33:18;19.10;99.90
34766;DHT22;20984;43.508;1.504;2023-09-12T02:35:43;19.10;99.90
34766;DHT22;20984;43.508;1.504;2023-09-12T02:38:09;19.10;99.90
34766;DHT22;20984;43.508;1.504;2023-09-12T02:40:34;19.10;99.90
34766;DHT22;20984;43.508;1.504;2023-09-12T02:43:00;19.10;99.90
34766;DHT22;20984;43.508;1.504;2023-09-12T02:45:26;19.10;99.90
34766;DHT22;20984;43.508;1.504;2023-09-12T02:47:51;19.10;99.90
34766;DHT22;20984;43.508;1.504;2023-09-12T02:50:17;19.20;99.90
34766;DHT22;20984;43.508;1.504;2023-09-12T02:52:42;19.30;99.90
34766;DHT22;20984;43.508;1.504;2023-09-12T02:55:08;19.30;99.90
34766;DHT22;20984;43.508;1.504;2023-09-12T02:57:33;19.40;99.90
34766;DHT22;20984;43.508;1.504;2023-09-12T02:59:59;19.40;99.90
34766;DHT22;20984;43.508;1.504;2023-09-12T03:02:24;19.40;99.90
34766;DHT22;20984;43.508;1.504;2023-09-12T03:04:50;19.50;99.90
34766;DHT22;20984;43.508;1.504;2023-09-12T03:07:15;19.50;99.90
34766;DHT22;20984;43.508;1.504;2023-09-12T03:09:41;19.50;99.90
34766;DHT22;20984;43.508;1.504;2023-09-12T03:12:06;19.50;99.90
34766;DHT22;20984;43.508;1.504;2023-09-12T03:14:32;19.50;99.90
34766;DHT22;20984;43.508;1.504;2023-09-12T03:16:58;19.50;99.90
34766;DHT22;20984;43.508;1.504;2023-09-12T03:19:23;19.50;99.90
34766;DHT22;20984;43.508;1.504;2023-09-12T03:21:49;19.50;99.90
34766;DHT22;20984;43.508;1.504;2023-09-12T03:24:14;19.50;99.90
34766;DHT22;20984;43.508;1.504;2023-09-12T03:26:43;19.50;99.90
34766;DHT22;20984;43.508;1.504;2023-09-12T03:29:08;19.50;99.90
34766;DHT22;20984;43.508;1.504;2023-09-12T03:31:35;19.50;99.90
34766;DHT22;20984;43.508;1.504;2023-09-12T03:34:00;19.50;99.90
34766;DHT22;20984;43.508;1.504;2023-09-12T03:36:26;19.40;99.90
34766;DHT22;20984;43.508;1.504;2023-09-12T03:38:52;19.40;99.90
34766;DHT22;20984;43.508;1.504;2023-09-12T03:41:17;19.40;99.90
34766;DHT22;20984;43.508;1.504;2023-09-12T03:43:43;19.40;99.90
34766;DHT22;20984;43.508;1.504;2023-09-12T03:46:08;19.50;99.90
34766;DHT22;20984;43.508;1.504;2023-09-12T03:48:34;19.50;99.90
34766;DHT22;20984;43.508;1.504;2023-09-12T03:51:02;19.50;99.90
34766;DHT22;20984;43.508;1.504;2023-09-12T03:53:29;19.50;99.90
34766;DHT22;20984;43.508;1.504;2023-09-12T03:55:54;19.60;99.90
34766;DHT22;20984;43.508;1.504;2023-09-12T03:58:20;19.50;99.90
34766;DHT22;20984;43.508;1.504;2023-09-12T04:00:45;19.60;99.90
34766;DHT22;20984;43.508;1.504;2023-09-12T04:03:11;19.60;99.90
34766;DHT22;20984;43.508;1.504;2023-09-12T04:05:36;19.60;99.90
34766;DHT22;20984;43.508;1.504;2023-09-12T04:08:02;19.50;99.90
34766;DHT22;20984;43.508;1.504;2023-09-12T04:10:28;19.60;99.90
34766;DHT22;20984;43.508;1.504;2023-09-12T04:12:53;19.60;99.90
34766;DHT22;20984;43.508;1.504;2023-09-12T04:15:19;19.50;99.90
34766;DHT22;20984;43.508;1.504;2023-09-12T04:17:44;19.50;99.90
34766;DHT22;20984;43.508;1.504;2023-09-12T04:20:10;19.50;99.90
34766;DHT22;20984;43.508;1.504;2023-09-12T04:22:39;19.50;99.90
34766;DHT22;20984;43.508;1.504;2023-09-12T04:25:05;19.60;99.90
34766;DHT22;20984;43.508;1.504;2023-09-12T04:27:30;19.70;99.90
34766;DHT22;20984;43.508;1.504;2023-09-12T04:29:56;19.60;99.90
34766;DHT22;20984;43.508;1.504;2023-09-12T04:32:21;19.60;99.90
34766;DHT22;20984;43.508;1.504;2023-09-12T04:34:49;19.60;99.90
34766;DHT22;20984;43.508;1.504;2023-09-12T04:37:14;19.50;99.90
34766;DHT22;20984;43.508;1.504;2023-09-12T04:39:40;19.50;99.90
34766;DHT22;20984;43.508;1.504;2023-09-12T04:42:05;19.40;99.90
34766;DHT22;20984;43.508;1.504;2023-09-12T04:44:34;19.30;99.90
34766;DHT22;20984;43.508;1.504;2023-09-12T04:47:00;19.30;99.90
34766;DHT22;20984;43.508;1.504;2023-09-12T04:49:25;19.20;99.90
34766;DHT22;20984;43.508;1.504;2023-09-12T04:51:51;19.10;99.90
34766;DHT22;20984;43.508;1.504;2023-09-12T04:54:16;19.10;99.90
34766;DHT22;20984;43.508;1.504;2023-09-12T04:56:42;19.00;99.90
34766;DHT22;20984;43.508;1.504;2023-09-12T04:59:07;18.90;99.90
34766;DHT22;20984;43.508;1.504;2023-09-12T05:01:33;18.90;99.90
34766;DHT22;20984;43.508;1.504;2023-09-12T05:03:58;18.90;99.90
34766;DHT22;20984;43.508;1.504;2023-09-12T05:06:24;18.80;99.90
34766;DHT22;20984;43.508;1.504;2023-09-12T05:08:49;18.80;99.90
34766;DHT22;20984;43.508;1.504;2023-09-12T05:11:15;18.80;99.90
34766;DHT22;20984;43.508;1.504;2023-09-12T05:13:40;18.80;99.90
34766;DHT22;20984;43.508;1.504;2023-09-12T05:16:06;18.80;99.90
34766;DHT22;20984;43.508;1.504;2023-09-12T05:18:32;18.90;99.90
34766;DHT22;20984;43.508;1.504;2023-09-12T05:20:57;18.80;99.90
34766;DHT22;20984;43.508;1.504;2023-09-12T05:23:23;18.80;99.90
34766;DHT22;20984;43.508;1.504;2023-09-12T05:25:48;18.80;99.90
34766;DHT22;20984;43.508;1.504;2023-09-12T05:28:14;18.80;99.90
34766;DHT22;20984;43.508;1.504;2023-09-12T05:30:41;18.80;99.90
34766;DHT22;20984;43.508;1.504;2023-09-12T05:33:07;18.80;99.90
34766;DHT22;20984;43.508;1.504;2023-09-12T05:35:32;18.70;99.90
34766;DHT22;20984;43.508;1.504;2023-09-12T05:37:58;18.70;99.90
34766;DHT22;20984;43.508;1.504;2023-09-12T05:40:23;18.70;99.90
34766;DHT22;20984;43.508;1.504;2023-09-12T05:42:49;18.70;99.90
34766;DHT22;20984;43.508;1.504;2023-09-12T05:45:14;18.70;99.90
34766;DHT22;20984;43.508;1.504;2023-09-12T05:47:40;18.80;99.90
34766;DHT22;20984;43.508;1.504;2023-09-12T05:50:06;18.80;99.90
34766;DHT22;20984;43.508;1.504;2023-09-12T05:52:32;18.80;99.90
34766;DHT22;20984;43.508;1.504;2023-09-12T05:54:58;18.80;99.90
34766;DHT22;20984;43.508;1.504;2023-09-12T05:57:23;18.80;99.90
34766;DHT22;20984;43.508;1.504;2023-09-12T05:59:49;18.90;99.90
34766;DHT22;20984;43.508;1.504;2023-09-12T06:02:14;18.90;99.90
34766;DHT22;20984;43.508;1.504;2023-09-12T06:04:40;18.90;99.90
34766;DHT22;20984;43.508;1.504;2023-09-12T06:07:05;19.00;99.90
34766;DHT22;20984;43.508;1.504;2023-09-12T06:09:31;19.00;99.90
34766;DHT22;20984;43.508;1.504;2023-09-12T06:11:56;19.10;99.90
34766;DHT22;20984;43.508;1.504;2023-09-12T06:14:22;19.20;99.90
34766;DHT22;20984;43.508;1.504;2023-09-12T06:16:48;19.30;99.90
34766;DHT22;20984;43.508;1.504;2023-09-12T06:19:13;19.30;99.90
34766;DHT22;20984;43.508;1.504;2023-09-12T06:21:43;19.40;99.90
34766;DHT22;20984;43.508;1.504;2023-09-12T06:26:34;19.50;99.90
34766;DHT22;20984;43.508;1.504;2023-09-12T06:28:59;19.60;99.90
34766;DHT22;20984;43.508;1.504;2023-09-12T06:31:25;19.70;99.90
34766;DHT22;20984;43.508;1.504;2023-09-12T06:33:50;19.90;99.90
34766;DHT22;20984;43.508;1.504;2023-09-12T06:36:16;20.10;99.90
34766;DHT22;20984;43.508;1.504;2023-09-12T06:38:41;20.30;99.90
34766;DHT22;20984;43.508;1.504;2023-09-12T06:41:07;20.50;99.90
34766;DHT22;20984;43.508;1.504;2023-09-12T06:43:32;20.60;99.90
34766;DHT22;20984;43.508;1.504;2023-09-12T06:45:58;20.60;99.90
34766;DHT22;20984;43.508;1.504;2023-09-12T06:48:24;20.70;99.90
34766;DHT22;20984;43.508;1.504;2023-09-12T06:50:49;20.80;99.90
34766;DHT22;20984;43.508;1.504;2023-09-12T06:53:15;20.80;99.90
34766;DHT22;20984;43.508;1.504;2023-09-12T06:55:41;20.70;99.90
34766;DHT22;20984;43.508;1.504;2023-09-12T06:58:06;20.80;99.90
34766;DHT22;20984;43.508;1.504;2023-09-12T07:00:33;20.80;99.90
34766;DHT22;20984;43.508;1.504;2023-09-12T07:02:58;20.70;99.90
34766;DHT22;20984;43.508;1.504;2023-09-12T07:05:24;20.80;99.90
34766;DHT22;20984;43.508;1.504;2023-09-12T07:07:49;21.00;99.90
34766;DHT22;20984;43.508;1.504;2023-09-12T07:10:15;21.00;99.90
34766;DHT22;20984;43.508;1.504;2023-09-12T07:12:41;21.00;99.90
34766;DHT22;20984;43.508;1.504;2023-09-12T07:15:06;21.10;99.90
34766;DHT22;20984;43.508;1.504;2023-09-12T07:17:32;21.30;99.90
34766;DHT22;20984;43.508;1.504;2023-09-12T07:19:57;21.40;99.90
34766;DHT22;20984;43.508;1.504;2023-09-12T07:22:23;21.50;99.90
34766;DHT22;20984;43.508;1.504;2023-09-12T07:24:48;21.50;99.90
34766;DHT22;20984;43.508;1.504;2023-09-12T07:27:14;21.50;99.90
34766;DHT22;20984;43.508;1.504;2023-09-12T07:29:39;21.80;99.90
34766;DHT22;20984;43.508;1.504;2023-09-12T07:32:05;21.90;99.90
34766;DHT22;20984;43.508;1.504;2023-09-12T07:34:30;21.90;99.90
34766;DHT22;20984;43.508;1.504;2023-09-12T07:36:56;21.80;99.90
34766;DHT22;20984;43.508;1.504;2023-09-12T07:39:21;21.80;99.90
34766;DHT22;20984;43.508;1.504;2023-09-12T07:41:47;21.80;99.90
34766;DHT22;20984;43.508;1.504;2023-09-12T07:44:13;21.80;99.90
34766;DHT22;20984;43.508;1.504;2023-09-12T07:46:40;21.90;99.90
34766;DHT22;20984;43.508;1.504;2023-09-12T07:49:06;22.00;99.90
34766;DHT22;20984;43.508;1.504;2023-09-12T07:51:33;22.00;99.90
34766;DHT22;20984;43.508;1.504;2023-09-12T07:53:59;22.10;99.90
34766;DHT22;20984;43.508;1.504;2023-09-12T07:56:24;22.00;99.90
34766;DHT22;20984;43.508;1.504;2023-09-12T07:58:50;21.80;99.90
34766;DHT22;20984;43.508;1.504;2023-09-12T08:01:15;21.70;99.90
34766;DHT22;20984;43.508;1.504;2023-09-12T08:03:41;21.60;99.90
34766;DHT22;20984;43.508;1.504;2023-09-12T08:06:07;21.60;99.90
34766;DHT22;20984;43.508;1.504;2023-09-12T08:08:32;21.50;99.90
34766;DHT22;20984;43.508;1.504;2023-09-12T08:10:58;21.50;99.90
34766;DHT22;20984;43.508;1.504;2023-09-12T08:13:27;21.50;99.90
34766;DHT22;20984;43.508;1.504;2023-09-12T08:15:53;21.40;99.90
34766;DHT22;20984;43.508;1.504;2023-09-12T08:18:19;21.50;99.90
34766;DHT22;20984;43.508;1.504;2023-09-12T08:20:44;21.50;99.90
34766;DHT22;20984;43.508;1.504;2023-09-12T08:23:10;21.60;99.90
34766;DHT22;20984;43.508;1.504;2023-09-12T08:25:35;21.60;99.90
34766;DHT22;20984;43.508;1.504;2023-09-12T08:28:01;21.60;99.90
34766;DHT22;20984;43.508;1.504;2023-09-12T08:30:27;21.60;99.90
34766;DHT22;20984;43.508;1.504;2023-09-12T08:32:55;21.60;99.90
34766;DHT22;20984;43.508;1.504;2023-09-12T08:35:20;21.60;99.90
34766;DHT22;20984;43.508;1.504;2023-09-12T08:37:46;21.70;99.90
34766;DHT22;20984;43.508;1.504;2023-09-12T08:40:11;21.70;99.90
34766;DHT22;20984;43.508;1.504;2023-09-12T08:42:44;21.70;99.90
34766;DHT22;20984;43.508;1.504;2023-09-12T08:45:19;21.70;99.90
34766;DHT22;20984;43.508;1.504;2023-09-12T08:47:45;21.80;99.90
34766;DHT22;20984;43.508;1.504;2023-09-12T08:50:12;21.90;99.90
34766;DHT22;20984;43.508;1.504;2023-09-12T08:52:41;21.90;99.90
34766;DHT22;20984;43.508;1.504;2023-09-12T08:55:07;22.00;99.90
34766;DHT22;20984;43.508;1.504;2023-09-12T08:57:33;21.90;99.90
34766;DHT22;20984;43.508;1.504;2023-09-12T09:00:00;21.90;99.90
34766;DHT22;20984;43.508;1.504;2023-09-12T09:02:38;21.90;99.90
34766;DHT22;20984;43.508;1.504;2023-09-12T09:05:04;21.90;99.90
34766;DHT22;20984;43.508;1.504;2023-09-12T09:07:40;21.90;99.90
34766;DHT22;20984;43.508;1.504;2023-09-12T09:10:07;21.80;99.90
34766;DHT22;20984;43.508;1.504;2023-09-12T09:12:34;21.80;99.90
34766;DHT22;20984;43.508;1.504;2023-09-12T09:15:45;21.70;99.90
34766;DHT22;20984;43.508;1.504;2023-09-12T09:17:46;21.70;99.90
34766;DHT22;20984;43.508;1.504;2023-09-12T09:20:20;21.70;99.90
34766;DHT22;20984;43.508;1.504;2023-09-12T09:22:55;21.60;99.90
34766;DHT22;20984;43.508;1.504;2023-09-12T09:25:21;21.60;99.90
34766;DHT22;20984;43.508;1.504;2023-09-12T09:27:46;21.60;99.90
34766;DHT22;20984;43.508;1.504;2023-09-12T09:30:13;21.60;99.90
34766;DHT22;20984;43.508;1.504;2023-09-12T09:32:39;21.60;99.90
34766;DHT22;20984;43.508;1.504;2023-09-12T09:35:05;21.60;99.90
34766;DHT22;20984;43.508;1.504;2023-09-12T09:37:30;21.60;99.90
34766;DHT22;20984;43.508;1.504;2023-09-12T09:39:56;21.70;99.90
34766;DHT22;20984;43.508;1.504;2023-09-12T09:42:22;21.80;99.90
34766;DHT22;20984;43.508;1.504;2023-09-12T09:44:48;21.90;99.90
34766;DHT22;20984;43.508;1.504;2023-09-12T09:47:14;22.00;99.90
34766;DHT22;20984;43.508;1.504;2023-09-12T09:49:40;22.10;99.90
34766;DHT22;20984;43.508;1.504;2023-09-12T09:52:06;22.20;99.90
34766;DHT22;20984;43.508;1.504;2023-09-12T09:54:32;22.20;99.90
34766;DHT22;20984;43.508;1.504;2023-09-12T09:56:57;22.20;99.90
34766;DHT22;20984;43.508;1.504;2023-09-12T09:59:24;22.30;99.90
34766;DHT22;20984;43.508;1.504;2023-09-12T10:01:49;22.20;99.90
34766;DHT22;20984;43.508;1.504;2023-09-12T10:04:16;22.10;99.90
34766;DHT22;20984;43.508;1.504;2023-09-12T10:06:43;22.10;99.90
34766;DHT22;20984;43.508;1.504;2023-09-12T10:09:09;21.90;99.90
34766;DHT22;20984;43.508;1.504;2023-09-12T10:11:36;22.00;99.90
34766;DHT22;20984;43.508;1.504;2023-09-12T10:14:03;21.80;99.90
34766;DHT22;20984;43.508;1.504;2023-09-12T10:16:30;21.70;99.90
34766;DHT22;20984;43.508;1.504;2023-09-12T10:19:02;21.70;99.90
34766;DHT22;20984;43.508;1.504;2023-09-12T10:21:30;21.60;99.90
34766;DHT22;20984;43.508;1.504;2023-09-12T10:23:59;21.60;99.90
34766;DHT22;20984;43.508;1.504;2023-09-12T10:26:25;21.60;99.90
34766;DHT22;20984;43.508;1.504;2023-09-12T10:28:51;21.60;99.90
34766;DHT22;20984;43.508;1.504;2023-09-12T10:31:17;21.50;99.90
34766;DHT22;20984;43.508;1.504;2023-09-12T10:33:43;21.50;99.90
34766;DHT22;20984;43.508;1.504;2023-09-12T10:36:10;21.60;99.90
34766;DHT22;20984;43.508;1.504;2023-09-12T10:38:40;21.70;99.90
34766;DHT22;20984;43.508;1.504;2023-09-12T10:41:07;21.70;99.90
34766;DHT22;20984;43.508;1.504;2023-09-12T10:43:35;21.80;99.90
34766;DHT22;20984;43.508;1.504;2023-09-12T10:46:01;21.80;99.90
34766;DHT22;20984;43.508;1.504;2023-09-12T10:48:29;21.90;99.90
34766;DHT22;20984;43.508;1.504;2023-09-12T10:50:56;22.00;99.90
34766;DHT22;20984;43.508;1.504;2023-09-12T10:53:22;22.00;99.90
34766;DHT22;20984;43.508;1.504;2023-09-12T11:01:50;22.10;99.90
34766;DHT22;20984;43.508;1.504;2023-09-12T11:06:44;22.00;99.90
34766;DHT22;20984;43.508;1.504;2023-09-12T11:11:43;21.80;99.90
34766;DHT22;20984;43.508;1.504;2023-09-12T11:14:09;21.80;99.90
34766;DHT22;20984;43.508;1.504;2023-09-12T11:16:34;21.80;99.90
34766;DHT22;20984;43.508;1.504;2023-09-12T11:19:13;21.70;99.90
34766;DHT22;20984;43.508;1.504;2023-09-12T11:21:45;21.70;99.90
34766;DHT22;20984;43.508;1.504;2023-09-12T11:24:12;21.80;99.90
34766;DHT22;20984;43.508;1.504;2023-09-12T11:29:19;21.80;99.90
34766;DHT22;20984;43.508;1.504;2023-09-12T11:31:52;22.00;99.90
34766;DHT22;20984;43.508;1.504;2023-09-12T11:34:18;22.00;99.90
34766;DHT22;20984;43.508;1.504;2023-09-12T11:36:43;22.20;99.90
34766;DHT22;20984;43.508;1.504;2023-09-12T11:39:24;22.30;99.90
34766;DHT22;20984;43.508;1.504;2023-09-12T11:41:52;22.40;99.90
34766;DHT22;20984;43.508;1.504;2023-09-12T11:44:19;22.60;99.90
34766;DHT22;20984;43.508;1.504;2023-09-12T11:46:46;22.80;99.90
34766;DHT22;20984;43.508;1.504;2023-09-12T11:49:12;22.90;99.90
34766;DHT22;20984;43.508;1.504;2023-09-12T11:51:45;23.00;99.90
34766;DHT22;20984;43.508;1.504;2023-09-12T11:54:13;23.20;99.90
34766;DHT22;20984;43.508;1.504;2023-09-12T11:56:39;23.30;99.90
34766;DHT22;20984;43.508;1.504;2023-09-12T11:59:04;23.40;99.90
34766;DHT22;20984;43.508;1.504;2023-09-12T12:01:31;23.50;99.90
34766;DHT22;20984;43.508;1.504;2023-09-12T12:03:57;23.40;99.90
34766;DHT22;20984;43.508;1.504;2023-09-12T12:06:23;23.40;99.90
34766;DHT22;20984;43.508;1.504;2023-09-12T12:08:48;23.50;99.90
34766;DHT22;20984;43.508;1.504;2023-09-12T12:11:14;23.50;99.90
34766;DHT22;20984;43.508;1.504;2023-09-12T12:13:39;23.40;99.90
34766;DHT22;20984;43.508;1.504;2023-09-12T12:16:18;23.40;99.90
34766;DHT22;20984;43.508;1.504;2023-09-12T12:18:43;23.40;99.90
34766;DHT22;20984;43.508;1.504;2023-09-12T12:21:09;23.40;99.90
34766;DHT22;20984;43.508;1.504;2023-09-12T12:23:34;23.40;99.90
34766;DHT22;20984;43.508;1.504;2023-09-12T12:26:07;23.40;99.90
34766;DHT22;20984;43.508;1.504;2023-09-12T12:28:37;23.30;99.90
34766;DHT22;20984;43.508;1.504;2023-09-12T12:31:02;23.20;99.90
34766;DHT22;20984;43.508;1.504;2023-09-12T12:33:28;23.20;99.90
34766;DHT22;20984;43.508;1.504;2023-09-12T12:38:25;22.90;99.90
34766;DHT22;20984;43.508;1.504;2023-09-12T12:40:51;22.80;99.90
34766;DHT22;20984;43.508;1.504;2023-09-12T12:43:16;22.60;99.90
34766;DHT22;20984;43.508;1.504;2023-09-12T12:45:52;22.60;99.90
34766;DHT22;20984;43.508;1.504;2023-09-12T12:48:17;22.50;99.90
34766;DHT22;20984;43.508;1.504;2023-09-12T12:50:54;22.50;99.90
34766;DHT22;20984;43.508;1.504;2023-09-12T12:53:36;22.50;99.90
34766;DHT22;20984;43.508;1.504;2023-09-12T12:56:01;22.60;99.90
34766;DHT22;20984;43.508;1.504;2023-09-12T12:58:27;22.50;99.90
34766;DHT22;20984;43.508;1.504;2023-09-12T13:00:55;22.40;99.90
34766;DHT22;20984;43.508;1.504;2023-09-12T13:03:21;22.40;99.90
34766;DHT22;20984;43.508;1.504;2023-09-12T13:05:46;22.30;99.90
34766;DHT22;20984;43.508;1.504;2023-09-12T13:08:12;22.30;99.90
34766;DHT22;20984;43.508;1.504;2023-09-12T13:10:37;22.20;99.90
34766;DHT22;20984;43.508;1.504;2023-09-12T13:13:03;22.00;99.90
34766;DHT22;20984;43.508;1.504;2023-09-12T13:15:29;21.90;99.90
34766;DHT22;20984;43.508;1.504;2023-09-12T13:17:55;21.90;99.90
34766;DHT22;20984;43.508;1.504;2023-09-12T13:20:20;22.10;99.90
34766;DHT22;20984;43.508;1.504;2023-09-12T13:22:46;22.20;99.90
34766;DHT22;20984;43.508;1.504;2023-09-12T13:25:11;22.20;99.90
34766;DHT22;20984;43.508;1.504;2023-09-12T13:27:37;22.30;99.90
34766;DHT22;20984;43.508;1.504;2023-09-12T13:30:02;22.20;99.90
34766;DHT22;20984;43.508;1.504;2023-09-12T13:32:29;22.10;99.90
34766;DHT22;20984;43.508;1.504;2023-09-12T13:34:55;22.20;99.90
34766;DHT22;20984;43.508;1.504;2023-09-12T13:37:21;22.40;99.90
34766;DHT22;20984;43.508;1.504;2023-09-12T13:39:46;22.40;99.90
34766;DHT22;20984;43.508;1.504;2023-09-12T13:42:14;22.50;99.90
34766;DHT22;20984;43.508;1.504;2023-09-12T13:44:44;22.60;99.90
34766;DHT22;20984;43.508;1.504;2023-09-12T13:47:09;22.70;99.90
34766;DHT22;20984;43.508;1.504;2023-09-12T13:49:35;22.90;99.90
34766;DHT22;20984;43.508;1.504;2023-09-12T13:52:00;23.10;99.90
34766;DHT22;20984;43.508;1.504;2023-09-12T13:54:26;23.20;99.90
34766;DHT22;20984;43.508;1.504;2023-09-12T13:56:51;23.30;99.90
34766;DHT22;20984;43.508;1.504;2023-09-12T13:59:17;23.20;99.90
34766;DHT22;20984;43.508;1.504;2023-09-12T14:01:45;23.40;99.90
34766;DHT22;20984;43.508;1.504;2023-09-12T14:04:11;23.50;99.90
34766;DHT22;20984;43.508;1.504;2023-09-12T14:06:36;23.70;99.90
34766;DHT22;20984;43.508;1.504;2023-09-12T14:09:02;23.70;99.90
34766;DHT22;20984;43.508;1.504;2023-09-12T14:11:27;23.60;99.90
34766;DHT22;20984;43.508;1.504;2023-09-12T14:13:53;23.80;99.90
34766;DHT22;20984;43.508;1.504;2023-09-12T14:16:19;24.20;99.90
34766;DHT22;20984;43.508;1.504;2023-09-12T14:18:44;24.40;99.90
34766;DHT22;20984;43.508;1.504;2023-09-12T14:21:10;24.80;99.90
34766;DHT22;20984;43.508;1.504;2023-09-12T14:23:35;25.20;99.90
34766;DHT22;20984;43.508;1.504;2023-09-12T14:26:00;24.90;99.90
34766;DHT22;20984;43.508;1.504;2023-09-12T14:28:26;25.00;99.90
34766;DHT22;20984;43.508;1.504;2023-09-12T14:30:53;25.10;99.90
34766;DHT22;20984;43.508;1.504;2023-09-12T14:33:19;25.30;99.90
34766;DHT22;20984;43.508;1.504;2023-09-12T14:35:47;25.00;99.90
34766;DHT22;20984;43.508;1.504;2023-09-12T14:38:12;25.10;99.90
34766;DHT22;20984;43.508;1.504;2023-09-12T14:40:38;25.10;99.90
34766;DHT22;20984;43.508;1.504;2023-09-12T14:43:05;25.60;99.90
34766;DHT22;20984;43.508;1.504;2023-09-12T14:45:30;25.40;99.90
34766;DHT22;20984;43.508;1.504;2023-09-12T14:47:56;25.20;99.90
34766;DHT22;20984;43.508;1.504;2023-09-12T14:50:23;25.00;99.90
34766;DHT22;20984;43.508;1.504;2023-09-12T14:52:54;24.80;99.90
34766;DHT22;20984;43.508;1.504;2023-09-12T14:55:20;24.80;99.90
34766;DHT22;20984;43.508;1.504;2023-09-12T14:57:45;24.80;99.90
34766;DHT22;20984;43.508;1.504;2023-09-12T15:00:11;24.80;99.90
34766;DHT22;20984;43.508;1.504;2023-09-12T15:02:37;24.90;99.90
34766;DHT22;20984;43.508;1.504;2023-09-12T15:05:02;24.90;99.90
34766;DHT22;20984;43.508;1.504;2023-09-12T15:07:29;24.70;99.90
34766;DHT22;20984;43.508;1.504;2023-09-12T15:09:58;24.80;99.90
34766;DHT22;20984;43.508;1.504;2023-09-12T15:12:24;24.80;99.90
34766;DHT22;20984;43.508;1.504;2023-09-12T15:14:50;24.70;99.90
34766;DHT22;20984;43.508;1.504;2023-09-12T15:17:17;24.70;99.90
34766;DHT22;20984;43.508;1.504;2023-09-12T15:19:42;24.70;99.90
34766;DHT22;20984;43.508;1.504;2023-09-12T15:22:08;25.00;99.90
34766;DHT22;20984;43.508;1.504;2023-09-12T15:24:33;25.40;99.90
34766;DHT22;20984;43.508;1.504;2023-09-12T15:26:59;26.90;99.90
34766;DHT22;20984;43.508;1.504;2023-09-12T15:29:24;28.70;99.90
34766;DHT22;20984;43.508;1.504;2023-09-12T15:31:50;30.50;99.90
34766;DHT22;20984;43.508;1.504;2023-09-12T15:34:15;31.20;99.90
34766;DHT22;20984;43.508;1.504;2023-09-12T15:36:43;31.90;99.90
34766;DHT22;20984;43.508;1.504;2023-09-12T15:39:08;31.30;99.90
34766;DHT22;20984;43.508;1.504;2023-09-12T15:41:35;30.70;99.90
34766;DHT22;20984;43.508;1.504;2023-09-12T15:44:01;30.20;99.90